Time;durP1;ratioP1;P1;durP2;ratioP2;P2;SDS_P1;SDS_P2;PMS_P1;PMS_P2;Temp;Humidity;BMP_temperature;BMP_pressure;BME280_temperature;BME280_humidity;BME280_pressure;Samples;Min_cycle;Max_cycle;Signal;HPM_P1;HPM_P2
2021/09/12 00:00:29;;;;;;;11.88;3.90;;;;;;;;;;4334118;33;20240;-85
2021/09/12 00:02:54;;;;;;;10.68;3.30;;;;;;;;;;4332024;33;20214;-85
2021/09/12 00:05:19;;;;;;;13.30;3.55;;;;;;;;;;4331623;33;20695;-85
2021/09/12 00:07:45;;;;;;;9.05;3.55;;;;;;;;;;4345885;33;20148;-85
2021/09/12 00:10:10;;;;;;;11.20;4.05;;;;;;;;;;4332042;33;20168;-84
2021/09/12 00:12:38;;;;;;;13.25;3.87;;;;;;;;;;4346502;33;20580;-83
2021/09/12 00:15:05;;;;;;;10.82;4.40;;;;;;;;;;4347912;33;20151;-83
2021/09/12 00:17:30;;;;;;;11.80;4.37;;;;;;;;;;4334912;33;20604;-83
2021/09/12 00:19:56;;;;;;;12.55;3.97;;;;;;;;;;4334520;33;20140;-84
2021/09/12 00:22:21;;;;;;;13.00;4.22;;;;;;;;;;4347604;33;20140;-83
2021/09/12 00:24:49;;;;;;;11.25;4.65;;;;;;;;;;4347606;33;20132;-85
2021/09/12 00:27:14;;;;;;;12.40;4.78;;;;;;;;;;4347792;33;20182;-83
2021/09/12 00:29:46;;;;;;;13.82;4.00;;;;;;;;;;4348133;33;20589;-84
2021/09/12 00:32:12;;;;;;;10.30;4.45;;;;;;;;;;4348519;33;20158;-83
2021/09/12 00:34:37;;;;;;;16.58;4.43;;;;;;;;;;4334275;33;20170;-83
2021/09/12 00:37:02;;;;;;;9.63;4.82;;;;;;;;;;4348024;33;20507;-84
2021/09/12 00:39:29;;;;;;;11.52;4.00;;;;;;;;;;4347680;33;20136;-84
2021/09/12 00:41:55;;;;;;;14.18;4.25;;;;;;;;;;4347294;33;20163;-83
2021/09/12 00:44:22;;;;;;;13.95;4.53;;;;;;;;;;4334074;33;20240;-83
2021/09/12 00:46:53;;;;;;;12.30;4.25;;;;;;;;;;4334233;33;20166;-84
2021/09/12 00:49:19;;;;;;;13.07;4.55;;;;;;;;;;4333683;33;20160;-84
2021/09/12 00:51:44;;;;;;;9.75;4.65;;;;;;;;;;4347524;33;20170;-83
2021/09/12 00:54:09;;;;;;;12.75;4.55;;;;;;;;;;4347481;33;20179;-84
2021/09/12 00:56:36;;;;;;;10.95;4.32;;;;;;;;;;4346970;33;20214;-83
2021/09/12 00:59:02;;;;;;;14.57;4.87;;;;;;;;;;4347424;33;20626;-83
2021/09/12 01:01:28;;;;;;;13.98;4.32;;;;;;;;;;4347446;33;20139;-84
2021/09/12 01:03:53;;;;;;;12.75;4.45;;;;;;;;;;4347844;33;20210;-85
2021/09/12 01:06:19;;;;;;;11.32;4.60;;;;;;;;;;4333818;33;20230;-84
2021/09/12 01:08:47;;;;;;;14.95;4.28;;;;;;;;;;4347558;33;20136;-84
2021/09/12 01:11:13;;;;;;;14.90;4.87;;;;;;;;;;4347113;33;20139;-85
2021/09/12 01:13:42;;;;;;;9.82;3.83;;;;;;;;;;4347535;33;20143;-84
2021/09/12 01:16:14;;;;;;;11.68;4.43;;;;;;;;;;4333994;33;20282;-84
2021/09/12 01:18:40;;;;;;;10.07;4.15;;;;;;;;;;4333868;33;20678;-85
2021/09/12 01:21:10;;;;;;;9.75;5.30;;;;;;;;;;4347283;33;20135;-84
2021/09/12 01:23:39;;;;;;;13.23;5.97;;;;;;;;;;4333347;33;20171;-84
2021/09/12 01:26:09;;;;;;;9.75;4.53;;;;;;;;;;4333383;33;20585;-85
2021/09/12 01:28:58;;;;;;;11.80;5.30;;;;;;;;;;4346690;33;20215;-84
2021/09/12 01:31:30;;;;;;;11.23;4.68;;;;;;;;;;4346756;33;20136;-85
2021/09/12 01:33:56;;;;;;;11.73;5.70;;;;;;;;;;4347357;33;20158;-84
2021/09/12 01:36:22;;;;;;;14.00;5.95;;;;;;;;;;4346900;33;20151;-84
2021/09/12 01:38:50;;;;;;;15.23;6.57;;;;;;;;;;4346657;33;20182;-84
2021/09/12 01:41:19;;;;;;;14.87;6.50;;;;;;;;;;4332847;33;20167;-85
2021/09/12 01:43:58;;;;;;;15.00;6.15;;;;;;;;;;4346606;33;20162;-85
2021/09/12 01:46:26;;;;;;;12.48;5.87;;;;;;;;;;4332973;33;20202;-85
2021/09/12 01:49:05;;;;;;;10.25;5.12;;;;;;;;;;4346221;33;20152;-86
2021/09/12 01:51:33;;;;;;;10.75;6.32;;;;;;;;;;4346754;33;20155;-85
2021/09/12 01:53:59;;;;;;;12.63;5.85;;;;;;;;;;4346538;33;20155;-85
2021/09/12 01:56:24;;;;;;;14.43;6.30;;;;;;;;;;4346770;33;20550;-85
2021/09/12 01:58:53;;;;;;;13.73;6.35;;;;;;;;;;4346269;33;20175;-85
2021/09/12 02:01:21;;;;;;;17.33;7.20;;;;;;;;;;4333100;33;20164;-85
2021/09/12 02:03:50;;;;;;;13.43;6.45;;;;;;;;;;4332761;33;20159;-85
2021/09/12 02:06:25;;;;;;;15.63;7.05;;;;;;;;;;4343453;33;20159;-84
2021/09/12 02:08:51;;;;;;;17.85;7.03;;;;;;;;;;4333097;33;20170;-84
2021/09/12 02:11:19;;;;;;;17.52;8.13;;;;;;;;;;4346418;33;20162;-84
2021/09/12 02:13:50;;;;;;;17.23;7.05;;;;;;;;;;4345893;33;20147;-84
2021/09/12 02:16:17;;;;;;;18.95;7.87;;;;;;;;;;4345958;33;20136;-84
2021/09/12 02:18:45;;;;;;;21.83;8.80;;;;;;;;;;4346665;33;20202;-84
2021/09/12 02:21:13;;;;;;;16.75;7.37;;;;;;;;;;4332473;33;20257;-85
2021/09/12 02:23:43;;;;;;;21.65;8.30;;;;;;;;;;4346180;33;20148;-84
2021/09/12 02:26:11;;;;;;;21.12;8.52;;;;;;;;;;4332668;33;20263;-84
2021/09/12 02:28:42;;;;;;;16.02;8.15;;;;;;;;;;4345850;33;20143;-84
2021/09/12 02:31:09;;;;;;;16.80;8.38;;;;;;;;;;4346793;33;20240;-84
2021/09/12 02:33:42;;;;;;;21.27;8.77;;;;;;;;;;4332477;33;20183;-84
2021/09/12 02:36:08;;;;;;;20.90;8.57;;;;;;;;;;4346553;33;20140;-84
2021/09/12 02:38:45;;;;;;;21.62;10.18;;;;;;;;;;4346233;33;20469;-85
2021/09/12 02:41:13;;;;;;;15.90;8.10;;;;;;;;;;4346045;33;20604;-84
2021/09/12 02:43:39;;;;;;;21.92;9.60;;;;;;;;;;4346016;33;20151;-85
2021/09/12 02:46:12;;;;;;;16.52;8.45;;;;;;;;;;4345623;33;20143;-84
2021/09/12 02:48:43;;;;;;;19.87;9.20;;;;;;;;;;4345949;33;20128;-85
2021/09/12 02:51:09;;;;;;;20.08;9.23;;;;;;;;;;4333196;33;20179;-84
2021/09/12 02:53:35;;;;;;;25.60;10.45;;;;;;;;;;4347377;33;20205;-84
2021/09/12 02:56:04;;;;;;;17.52;8.40;;;;;;;;;;4345529;33;20162;-84
2021/09/12 02:58:38;;;;;;;19.42;8.90;;;;;;;;;;4345486;33;20186;-84
2021/09/12 03:01:09;;;;;;;18.30;8.98;;;;;;;;;;4345485;33;20151;-83
2021/09/12 03:03:34;;;;;;;19.85;9.52;;;;;;;;;;4346027;33;20213;-84
2021/09/12 03:06:05;;;;;;;25.35;8.75;;;;;;;;;;4345352;33;20197;-84
2021/09/12 03:08:43;;;;;;;22.33;9.20;;;;;;;;;;4345904;33;20171;-85
2021/09/12 03:11:18;;;;;;;21.80;8.65;;;;;;;;;;4346027;33;20561;-84
2021/09/12 03:13:43;;;;;;;19.92;9.45;;;;;;;;;;4346315;33;20178;-85
2021/09/12 03:16:33;;;;;;;22.52;9.25;;;;;;;;;;4346216;33;20448;-85
2021/09/12 03:19:10;;;;;;;25.15;9.48;;;;;;;;;;4346012;33;20178;-85
2021/09/12 03:22:24;;;;;;;27.00;11.00;;;;;;;;;;4347787;33;20203;-86
2021/09/12 03:24:46;;;;;;;21.12;9.27;;;;;;;;;;4344947;33;20194;-87
2021/09/12 03:27:11;;;;;;;18.23;10.10;;;;;;;;;;4335933;33;20464;-86
2021/09/12 03:29:37;;;;;;;22.27;9.90;;;;;;;;;;4347512;33;20190;-85
2021/09/12 03:32:03;;;;;;;23.67;9.77;;;;;;;;;;4345664;33;20466;-85
2021/09/12 03:34:31;;;;;;;23.12;10.52;;;;;;;;;;4345876;33;20143;-85
2021/09/12 03:37:04;;;;;;;26.50;9.43;;;;;;;;;;4345302;33;20166;-85
2021/09/12 03:39:29;;;;;;;27.65;10.93;;;;;;;;;;4332014;33;20178;-85
2021/09/12 03:41:55;;;;;;;22.33;10.30;;;;;;;;;;4332418;33;20468;-85
2021/09/12 03:44:20;;;;;;;20.48;10.32;;;;;;;;;;4345365;33;20462;-84
2021/09/12 03:46:53;;;;;;;26.80;9.82;;;;;;;;;;4345766;33;20186;-83
2021/09/12 03:49:24;;;;;;;21.92;10.35;;;;;;;;;;4348524;33;20140;-84
2021/09/12 03:51:52;;;;;;;24.45;11.05;;;;;;;;;;4348640;33;20190;-84
2021/09/12 03:54:18;;;;;;;24.10;10.95;;;;;;;;;;4348040;33;20147;-84
2021/09/12 03:56:43;;;;;;;24.98;11.90;;;;;;;;;;4334822;33;20628;-84
2021/09/12 03:59:47;;;;;;;26.95;10.60;;;;;;;;;;4348330;33;20561;-83
2021/09/12 04:02:12;;;;;;;26.17;10.60;;;;;;;;;;4348365;33;20132;-84
2021/09/12 04:04:40;;;;;;;27.40;11.35;;;;;;;;;;4347950;33;20190;-83
2021/09/12 04:07:06;;;;;;;25.45;11.12;;;;;;;;;;4347569;33;20177;-84
2021/09/12 04:09:31;;;;;;;24.15;10.60;;;;;;;;;;4347904;33;20537;-84
2021/09/12 04:11:57;;;;;;;29.70;11.68;;;;;;;;;;4334416;33;20280;-84
2021/09/12 04:14:22;;;;;;;25.10;11.68;;;;;;;;;;4347562;33;20131;-83
2021/09/12 04:16:48;;;;;;;25.10;11.48;;;;;;;;;;4347954;33;20602;-83
2021/09/12 04:19:24;;;;;;;25.98;12.77;;;;;;;;;;4334130;33;20578;-84
2021/09/12 04:21:49;;;;;;;25.98;11.73;;;;;;;;;;4348590;33;20131;-84
2021/09/12 04:24:17;;;;;;;28.00;12.93;;;;;;;;;;4347732;33;20246;-84
2021/09/12 04:26:48;;;;;;;31.40;12.10;;;;;;;;;;4333881;33;20206;-85
2021/09/12 04:29:13;;;;;;;28.25;12.90;;;;;;;;;;4333977;33;20159;-85
2021/09/12 04:31:39;;;;;;;24.73;11.07;;;;;;;;;;4347846;33;20423;-85
2021/09/12 04:34:04;;;;;;;24.58;12.18;;;;;;;;;;4333982;33;20155;-85
2021/09/12 04:36:29;;;;;;;34.47;13.13;;;;;;;;;;4347934;33;20194;-85
2021/09/12 04:38:58;;;;;;;29.60;12.82;;;;;;;;;;4334469;33;20202;-85
2021/09/12 04:41:23;;;;;;;33.05;13.45;;;;;;;;;;4347084;33;20147;-83
2021/09/12 04:43:48;;;;;;;29.23;13.18;;;;;;;;;;4347846;33;20496;-84
2021/09/12 04:46:17;;;;;;;27.65;12.70;;;;;;;;;;4347572;33;20144;-83
2021/09/12 04:48:45;;;;;;;32.40;13.48;;;;;;;;;;4334099;33;20131;-83
2021/09/12 04:51:10;;;;;;;29.35;13.62;;;;;;;;;;4347158;33;20574;-84
2021/09/12 04:53:36;;;;;;;31.15;13.15;;;;;;;;;;4347967;33;20139;-84
2021/09/12 04:56:07;;;;;;;33.28;14.57;;;;;;;;;;4347073;33;20155;-84
2021/09/12 04:58:32;;;;;;;36.78;14.82;;;;;;;;;;4333205;33;20475;-84
2021/09/12 05:00:58;;;;;;;34.33;15.65;;;;;;;;;;4346863;33;20128;-84
2021/09/12 05:03:33;;;;;;;31.77;14.07;;;;;;;;;;4346972;33;20127;-83
2021/09/12 05:06:02;;;;;;;34.35;15.40;;;;;;;;;;4334031;33;20194;-85
2021/09/12 05:08:39;;;;;;;35.80;16.05;;;;;;;;;;4333973;33;20234;-85
2021/09/12 05:11:04;;;;;;;34.55;16.15;;;;;;;;;;4347267;33;20541;-85
2021/09/12 05:13:32;;;;;;;38.08;16.60;;;;;;;;;;4346841;33;20166;-85
2021/09/12 05:15:57;;;;;;;39.10;16.45;;;;;;;;;;4333478;33;20577;-85
2021/09/12 05:18:23;;;;;;;36.35;17.40;;;;;;;;;;4346945;33;20163;-85
2021/09/12 05:20:49;;;;;;;41.78;18.10;;;;;;;;;;4346730;33;20147;-85
2021/09/12 05:23:14;;;;;;;36.75;17.87;;;;;;;;;;4347134;33;20516;-84
2021/09/12 05:25:50;;;;;;;42.97;18.90;;;;;;;;;;4346637;33;20234;-84
2021/09/12 05:28:27;;;;;;;39.80;17.90;;;;;;;;;;4333522;33;20214;-84
2021/09/12 05:31:14;;;;;;;41.78;19.05;;;;;;;;;;4347120;33;20525;-84
2021/09/12 05:33:43;;;;;;;39.50;18.80;;;;;;;;;;4346524;33;20173;-84
2021/09/12 05:36:14;;;;;;;39.78;18.75;;;;;;;;;;4333222;33;20156;-84
2021/09/12 05:38:50;;;;;;;34.20;18.02;;;;;;;;;;4347067;33;20561;-85
2021/09/12 05:44:22;;;;;;;42.90;20.10;;;;;;;;;;4321526;33;20577;-84
2021/09/12 05:47:17;;;;;;;43.67;19.58;;;;;;;;;;4349700;33;20521;-84
2021/09/12 05:49:45;;;;;;;40.58;18.77;;;;;;;;;;4341811;33;20167;-84
2021/09/12 05:52:19;;;;;;;43.67;21.27;;;;;;;;;;4349370;33;20159;-85
2021/09/12 05:54:55;;;;;;;38.22;20.12;;;;;;;;;;4339406;33;20192;-84
2021/09/12 05:57:20;;;;;;;41.15;20.05;;;;;;;;;;4348566;33;20319;-84
2021/09/12 05:59:48;;;;;;;39.42;20.02;;;;;;;;;;4346175;33;20128;-83
2021/09/12 06:02:27;;;;;;;40.92;19.40;;;;;;;;;;4346056;33;20190;-84
2021/09/12 06:04:52;;;;;;;36.33;19.70;;;;;;;;;;4346723;33;20139;-84
2021/09/12 06:07:26;;;;;;;40.40;19.37;;;;;;;;;;4346527;33;20132;-84
2021/09/12 06:10:01;;;;;;;39.28;19.27;;;;;;;;;;4345907;33;20207;-84
2021/09/12 06:12:26;;;;;;;35.45;17.05;;;;;;;;;;4346691;33;20131;-84
2021/09/12 06:14:54;;;;;;;33.67;16.65;;;;;;;;;;4346334;33;20239;-83
2021/09/12 06:17:27;;;;;;;36.15;18.58;;;;;;;;;;4332776;33;20581;-85
2021/09/12 06:19:52;;;;;;;33.00;17.90;;;;;;;;;;4346657;33;20182;-85
2021/09/12 06:22:20;;;;;;;34.25;17.40;;;;;;;;;;4332570;33;20586;-83
2021/09/12 06:24:46;;;;;;;33.65;18.25;;;;;;;;;;4320269;33;20171;-85
2021/09/12 06:27:16;;;;;;;30.05;15.82;;;;;;;;;;4346037;33;20185;-84
2021/09/12 06:29:42;;;;;;;30.92;15.13;;;;;;;;;;4332880;33;20151;-85
2021/09/12 06:32:07;;;;;;;33.47;16.95;;;;;;;;;;4346329;33;20131;-85
2021/09/12 06:34:35;;;;;;;29.25;15.57;;;;;;;;;;4345920;33;20563;-85
2021/09/12 06:37:03;;;;;;;30.30;16.67;;;;;;;;;;4345984;33;20229;-84
2021/09/12 06:39:29;;;;;;;30.88;16.02;;;;;;;;;;4345947;33;20132;-84
2021/09/12 06:42:00;;;;;;;30.27;14.85;;;;;;;;;;4346025;33;20124;-84
2021/09/12 06:44:25;;;;;;;31.25;16.17;;;;;;;;;;4346107;33;20127;-84
2021/09/12 06:46:53;;;;;;;29.70;15.20;;;;;;;;;;4332153;33;20164;-84
2021/09/12 06:49:18;;;;;;;29.80;15.70;;;;;;;;;;4345216;33;20495;-85
2021/09/12 06:51:54;;;;;;;33.90;16.15;;;;;;;;;;4345159;33;20144;-84
2021/09/12 06:54:20;;;;;;;27.65;15.00;;;;;;;;;;4346080;33;20181;-84
2021/09/12 06:56:50;;;;;;;27.98;15.25;;;;;;;;;;4345523;33;20136;-85
2021/09/12 06:59:15;;;;;;;31.08;14.32;;;;;;;;;;4345963;33;20334;-84
2021/09/12 07:01:41;;;;;;;32.25;16.92;;;;;;;;;;4345917;33;20150;-84
2021/09/12 07:04:06;;;;;;;28.08;15.27;;;;;;;;;;4345396;33;20190;-85
2021/09/12 07:06:34;;;;;;;29.92;16.87;;;;;;;;;;4331589;33;20585;-84
2021/09/12 07:08:59;;;;;;;29.35;15.63;;;;;;;;;;4345698;33;20127;-84
2021/09/12 07:11:25;;;;;;;36.35;16.50;;;;;;;;;;4345867;33;20158;-84
2021/09/12 07:13:53;;;;;;;31.73;16.02;;;;;;;;;;4345513;33;20178;-85
2021/09/12 07:16:24;;;;;;;31.58;15.35;;;;;;;;;;4331787;33;20160;-84
2021/09/12 07:18:56;;;;;;;32.63;15.25;;;;;;;;;;4345733;33;20125;-84
2021/09/12 07:21:21;;;;;;;29.05;13.93;;;;;;;;;;4331498;33;20159;-84
2021/09/12 07:23:56;;;;;;;;;;;;;;;;;;;;;
2021/09/12 07:26:25;;;;;;;37.38;16.48;;;;;;;;;;4345205;33;20147;-84
2021/09/12 07:28:50;;;;;;;32.08;16.25;;;;;;;;;;4331786;33;20646;-84
2021/09/12 07:31:21;;;;;;;37.78;15.07;;;;;;;;;;4345503;33;20139;-84
2021/09/12 07:33:50;;;;;;;33.72;16.00;;;;;;;;;;4345844;33;20181;-83
2021/09/12 07:36:24;;;;;;;31.30;15.60;;;;;;;;;;4331617;33;20180;-84
2021/09/12 07:38:49;;;;;;;36.85;16.25;;;;;;;;;;4345493;33;20127;-83
2021/09/12 07:41:15;;;;;;;30.17;15.70;;;;;;;;;;4345380;33;20246;-84
2021/09/12 07:43:55;;;;;;;27.65;14.95;;;;;;;;;;4344957;33;20170;-84
2021/09/12 07:46:29;;;;;;;32.33;15.20;;;;;;;;;;4345573;33;20186;-83
2021/09/12 07:48:55;;;;;;;29.70;15.50;;;;;;;;;;4345692;33;20195;-84
2021/09/12 07:51:21;;;;;;;34.17;16.65;;;;;;;;;;4344683;33;20187;-84
2021/09/12 07:53:46;;;;;;;38.85;15.38;;;;;;;;;;4345293;33;20162;-84
2021/09/12 07:56:22;;;;;;;36.20;17.17;;;;;;;;;;4345243;33;20135;-84
2021/09/12 07:58:47;;;;;;;36.17;18.30;;;;;;;;;;4345798;33;20158;-84
2021/09/12 08:01:13;;;;;;;37.90;19.67;;;;;;;;;;4345315;33;20144;-83
2021/09/12 08:04:04;;;;;;;;;;;;;;;;;;;;;
2021/09/12 08:06:35;;;;;;;48.03;23.65;;;;;;;;;;4345560;33;20174;-84
2021/09/12 08:09:04;;;;;;;52.62;23.90;;;;;;;;;;4330625;33;20187;-84
2021/09/12 08:11:29;;;;;;;52.78;23.95;;;;;;;;;;4345120;33;20206;-84
2021/09/12 08:13:54;;;;;;;48.83;22.52;;;;;;;;;;4345093;33;20136;-84
2021/09/12 08:16:31;;;;;;;52.40;24.40;;;;;;;;;;4344848;33;20202;-84
2021/09/12 08:19:07;;;;;;;49.33;23.90;;;;;;;;;;4345520;33;20135;-83
2021/09/12 08:21:32;;;;;;;45.67;23.17;;;;;;;;;;4331792;33;20250;-83
2021/09/12 08:23:58;;;;;;;49.50;22.60;;;;;;;;;;4345419;33;20135;-84
2021/09/12 08:26:26;;;;;;;50.42;25.00;;;;;;;;;;4331870;33;20159;-84
2021/09/12 08:28:56;;;;;;;49.38;24.55;;;;;;;;;;4345217;33;20210;-84
2021/09/12 08:31:30;;;;;;;48.15;23.77;;;;;;;;;;4331738;33;20190;-83
2021/09/12 08:34:03;;;;;;;53.25;23.17;;;;;;;;;;4346721;33;20134;-83
2021/09/12 08:36:31;;;;;;;60.33;25.62;;;;;;;;;;4348072;33;20135;-82
2021/09/12 08:39:02;;;;;;;49.75;24.40;;;;;;;;;;4347933;33;20158;-84
2021/09/12 08:41:46;;;;;;;57.03;26.55;;;;;;;;;;4348085;33;20190;-83
2021/09/12 08:44:16;;;;;;;49.60;24.58;;;;;;;;;;4347624;33;20204;-83
2021/09/12 08:46:47;;;;;;;52.58;25.77;;;;;;;;;;4348104;33;20181;-84
2021/09/12 08:49:15;;;;;;;51.78;24.17;;;;;;;;;;4348271;33;20235;-85
2021/09/12 08:51:40;;;;;;;53.92;24.83;;;;;;;;;;4331476;33;20207;-83
2021/09/12 08:54:06;;;;;;;56.30;25.65;;;;;;;;;;4347259;33;20233;-82
2021/09/12 08:56:34;;;;;;;54.45;25.42;;;;;;;;;;4347659;33;20147;-84
2021/09/12 08:59:25;;;;;;;56.83;26.27;;;;;;;;;;4348807;33;20132;-82
2021/09/12 09:01:52;;;;;;;57.80;26.20;;;;;;;;;;4349231;33;20171;-83
2021/09/12 09:04:37;;;;;;;54.10;27.92;;;;;;;;;;4348422;33;20131;-82
2021/09/12 09:07:10;;;;;;;51.25;26.67;;;;;;;;;;4333665;33;20186;-84
2021/09/12 09:09:45;;;;;;;48.13;25.80;;;;;;;;;;4346823;33;20147;-85
2021/09/12 09:12:31;;;;;;;46.92;25.30;;;;;;;;;;4347425;33;20182;-84
2021/09/12 09:15:11;;;;;;;53.92;26.60;;;;;;;;;;4346763;33;20316;-80
2021/09/12 09:17:40;;;;;;;50.88;26.50;;;;;;;;;;4347308;33;20140;-80
2021/09/12 09:20:08;;;;;;;51.20;26.42;;;;;;;;;;4346790;33;20140;-80
2021/09/12 09:22:44;;;;;;;54.03;28.70;;;;;;;;;;4347311;33;20538;-81
2021/09/12 09:25:17;;;;;;;47.33;27.10;;;;;;;;;;4347667;33;20591;-81
2021/09/12 09:28:00;;;;;;;51.33;28.02;;;;;;;;;;4333461;33;20182;-80
2021/09/12 09:30:27;;;;;;;45.38;26.23;;;;;;;;;;4346836;33;20162;-81
2021/09/12 09:32:52;;;;;;;42.03;25.12;;;;;;;;;;4347236;33;20189;-80
2021/09/12 09:35:30;;;;;;;44.17;25.35;;;;;;;;;;4346797;33;20159;-81
2021/09/12 09:38:03;;;;;;;44.65;25.52;;;;;;;;;;4333733;33;20163;-81
2021/09/12 09:40:54;;;;;;;49.60;26.17;;;;;;;;;;4346803;33;20186;-81
2021/09/12 09:43:20;;;;;;;48.28;27.67;;;;;;;;;;4347125;33;20131;-81
2021/09/12 09:45:48;;;;;;;43.65;25.58;;;;;;;;;;4346647;33;20472;-86
2021/09/12 09:48:14;;;;;;;44.42;25.50;;;;;;;;;;4346340;33;20128;-84
2021/09/12 09:50:42;;;;;;;39.08;23.77;;;;;;;;;;4346602;33;20178;-83
2021/09/12 09:53:13;;;;;;;42.20;25.25;;;;;;;;;;4346632;33;20163;-86
2021/09/12 09:55:38;;;;;;;48.03;25.85;;;;;;;;;;4347165;33;20135;-84
2021/09/12 09:58:07;;;;;;;40.03;25.50;;;;;;;;;;4346699;33;20190;-85
2021/09/12 10:00:32;;;;;;;45.03;28.60;;;;;;;;;;4346715;33;20147;-85
2021/09/12 10:02:58;;;;;;;41.78;27.42;;;;;;;;;;4346484;33;20127;-84
2021/09/12 10:05:23;;;;;;;44.63;27.00;;;;;;;;;;4346711;33;20127;-84
2021/09/12 10:07:57;;;;;;;41.60;25.42;;;;;;;;;;4346257;33;20285;-83
2021/09/12 10:10:22;;;;;;;46.58;27.65;;;;;;;;;;4346920;33;20136;-85
2021/09/12 10:12:53;;;;;;;42.20;27.35;;;;;;;;;;4346783;33;20131;-83
2021/09/12 10:15:21;;;;;;;42.80;26.20;;;;;;;;;;4347103;33;20155;-84
2021/09/12 10:17:47;;;;;;;50.35;30.83;;;;;;;;;;4346658;33;20158;-84
2021/09/12 10:20:23;;;;;;;42.17;28.25;;;;;;;;;;4347188;33;20132;-83
2021/09/12 10:22:55;;;;;;;38.00;20.45;;;;;;;;;;4347082;33;20193;-85
2021/09/12 10:25:21;;;;;;;28.58;19.95;;;;;;;;;;4347243;33;20154;-85
2021/09/12 10:28:07;;;;;;;30.27;18.77;;;;;;;;;;4333119;33;20481;-82
2021/09/12 10:30:39;;;;;;;23.15;16.60;;;;;;;;;;4348990;33;20241;-84
2021/09/12 10:33:05;;;;;;;22.83;15.65;;;;;;;;;;4358848;33;20127;-85
2021/09/12 10:35:46;;;;;;;23.08;17.67;;;;;;;;;;4352704;33;20217;-83
2021/09/12 10:38:11;;;;;;;26.37;17.15;;;;;;;;;;4352010;33;20197;-83
2021/09/12 10:40:53;;;;;;;25.52;16.58;;;;;;;;;;4353631;33;20198;-84
2021/09/12 10:43:24;;;;;;;23.48;16.58;;;;;;;;;;4354844;33;20124;-84
2021/09/12 10:46:04;;;;;;;25.12;17.60;;;;;;;;;;4338729;33;20147;-84
2021/09/12 10:48:32;;;;;;;22.02;16.37;;;;;;;;;;4350869;33;20163;-86
2021/09/12 10:51:04;;;;;;;22.17;16.55;;;;;;;;;;4348546;33;20175;-82
2021/09/12 10:53:47;;;;;;;21.17;15.70;;;;;;;;;;4348228;33;20159;-84
2021/09/12 10:56:13;;;;;;;26.83;16.45;;;;;;;;;;4347627;33;20162;-84
2021/09/12 10:58:48;;;;;;;24.20;15.02;;;;;;;;;;4347184;33;20148;-83
2021/09/12 11:01:32;;;;;;;;;;;;;;;;;;;;;
2021/09/12 11:04:02;;;;;;;15.88;13.52;;;;;;;;;;4350057;33;20178;-84
2021/09/12 11:06:30;;;;;;;14.30;11.30;;;;;;;;;;4347749;33;20158;-84
2021/09/12 11:08:59;;;;;;;11.73;8.57;;;;;;;;;;4347161;33;20211;-83
2021/09/12 11:11:25;;;;;;;5.05;3.65;;;;;;;;;;4347206;33;20144;-85
2021/09/12 11:13:53;;;;;;;5.85;3.22;;;;;;;;;;4347324;33;20549;-85
2021/09/12 11:16:28;;;;;;;4.10;2.60;;;;;;;;;;4347055;33;20143;-85
2021/09/12 11:18:54;;;;;;;4.05;2.53;;;;;;;;;;4346929;33;20135;-84
2021/09/12 11:21:27;;;;;;;3.55;2.22;;;;;;;;;;4346650;33;20156;-84
2021/09/12 11:24:18;;;;;;;3.37;2.00;;;;;;;;;;4332305;33;20187;-84
2021/09/12 11:26:44;;;;;;;3.22;1.87;;;;;;;;;;4346570;33;20162;-85
2021/09/12 11:29:11;;;;;;;4.78;2.40;;;;;;;;;;4345333;33;20148;-85
2021/09/12 11:31:47;;;;;;;2.62;1.77;;;;;;;;;;4345593;33;20144;-84
2021/09/12 11:34:15;;;;;;;2.85;1.67;;;;;;;;;;4346606;33;20143;-84
2021/09/12 11:36:44;;;;;;;3.37;1.95;;;;;;;;;;4347459;33;20222;-84
2021/09/12 11:39:10;;;;;;;2.55;1.30;;;;;;;;;;4345210;33;20525;-84
2021/09/12 11:41:35;;;;;;;2.35;1.58;;;;;;;;;;4346100;33;20139;-85
2021/09/12 11:44:01;;;;;;;2.75;2.00;;;;;;;;;;4331851;33;20199;-84
2021/09/12 11:46:32;;;;;;;2.08;1.67;;;;;;;;;;4345648;33;20166;-84
2021/09/12 11:49:23;;;;;;;2.92;1.85;;;;;;;;;;4346359;33;20143;-85
2021/09/12 11:51:49;;;;;;;4.75;1.45;;;;;;;;;;4327735;33;20187;-84
2021/09/12 11:55:01;;;;;;;2.00;1.20;;;;;;;;;;4330483;33;20224;-84
2021/09/12 11:57:54;;;;;;;3.70;1.23;;;;;;;;;;4327312;33;20245;-85
2021/09/12 12:03:39;;;;;;;2.10;1.20;;;;;;;;;;4252719;33;20232;-86
2021/09/12 12:06:06;;;;;;;2.03;1.23;;;;;;;;;;4324183;33;20152;-84
2021/09/12 12:08:37;;;;;;;2.17;1.33;;;;;;;;;;4331956;33;20214;-84
2021/09/12 12:11:09;;;;;;;2.42;1.17;;;;;;;;;;4333333;33;20136;-85
2021/09/12 12:13:36;;;;;;;2.20;1.25;;;;;;;;;;4333340;33;20203;-85
2021/09/12 12:16:02;;;;;;;2.95;1.30;;;;;;;;;;4320036;33;20160;-85
2021/09/12 12:18:33;;;;;;;3.03;1.40;;;;;;;;;;4332981;33;20140;-84
2021/09/12 12:21:09;;;;;;;2.15;1.20;;;;;;;;;;4320643;33;20156;-85
2021/09/12 12:23:34;;;;;;;3.10;1.17;;;;;;;;;;4333832;33;20215;-83
2021/09/12 12:26:15;;;;;;;3.90;1.62;;;;;;;;;;4333010;33;20180;-84
2021/09/12 12:29:01;;;;;;;3.20;1.37;;;;;;;;;;4333334;33;20277;-84
2021/09/12 12:31:29;;;;;;;3.17;1.40;;;;;;;;;;4334086;33;20132;-85
2021/09/12 12:33:54;;;;;;;1.37;1.20;;;;;;;;;;4337383;33;20207;-84
2021/09/12 12:36:23;;;;;;;1.90;1.12;;;;;;;;;;4336536;33;20166;-83
2021/09/12 12:38:48;;;;;;;2.42;1.40;;;;;;;;;;4338029;33;20162;-83
2021/09/12 12:41:18;;;;;;;3.55;3.12;;;;;;;;;;4339779;33;20147;-84
2021/09/12 12:43:54;;;;;;;2.67;1.20;;;;;;;;;;4324331;33;20160;-84
2021/09/12 12:46:19;;;;;;;2.05;1.20;;;;;;;;;;4333399;33;20158;-84
2021/09/12 12:48:48;;;;;;;4.00;1.80;;;;;;;;;;4332439;33;20139;-84
2021/09/12 12:51:31;;;;;;;1.67;1.10;;;;;;;;;;4341792;33;20185;-85
2021/09/12 12:54:01;;;;;;;2.47;1.12;;;;;;;;;;4347609;33;20158;-85
2021/09/12 12:56:29;;;;;;;1.67;0.90;;;;;;;;;;4347195;33;20144;-84
2021/09/12 12:58:54;;;;;;;3.00;1.10;;;;;;;;;;4334068;33;20544;-86
2021/09/12 13:01:19;;;;;;;5.05;1.25;;;;;;;;;;4333516;33;20186;-84
2021/09/12 13:03:44;;;;;;;1.85;0.90;;;;;;;;;;4347293;33;20162;-86
2021/09/12 13:06:11;;;;;;;1.65;1.20;;;;;;;;;;4347178;33;20649;-86
2021/09/12 13:08:55;;;;;;;2.35;0.82;;;;;;;;;;4347041;33;20147;-85
2021/09/12 13:11:20;;;;;;;2.05;1.20;;;;;;;;;;4348021;33;20190;-85
2021/09/12 13:13:46;;;;;;;1.98;0.90;;;;;;;;;;4333480;33;20555;-85
2021/09/12 13:16:11;;;;;;;1.75;0.90;;;;;;;;;;4333712;33;20171;-85
2021/09/12 13:18:36;;;;;;;1.45;0.80;;;;;;;;;;4347182;33;20505;-84
2021/09/12 13:21:04;;;;;;;0.82;0.77;;;;;;;;;;4346451;33;20143;-85
2021/09/12 13:23:33;;;;;;;1.05;0.70;;;;;;;;;;4334853;33;20164;-85
2021/09/12 13:26:04;;;;;;;3.15;0.90;;;;;;;;;;4347344;33;20165;-84
2021/09/12 13:28:32;;;;;;;1.85;0.70;;;;;;;;;;4334205;33;20220;-84
2021/09/12 13:30:57;;;;;;;2.30;1.00;;;;;;;;;;4347192;33;20148;-84
2021/09/12 13:33:23;;;;;;;2.22;0.90;;;;;;;;;;4346791;33;20475;-85
2021/09/12 13:35:49;;;;;;;2.37;0.90;;;;;;;;;;4347295;33;20469;-86
2021/09/12 13:38:27;;;;;;;1.30;0.70;;;;;;;;;;4347619;33;20162;-85
2021/09/12 13:41:00;;;;;;;2.00;0.93;;;;;;;;;;4347445;33;20619;-84
2021/09/12 13:43:25;;;;;;;1.50;0.90;;;;;;;;;;4348092;33;20193;-85
2021/09/12 13:45:51;;;;;;;1.70;0.73;;;;;;;;;;4347480;33;20532;-83
2021/09/12 13:48:22;;;;;;;1.85;0.90;;;;;;;;;;4347528;33;20155;-85
2021/09/12 13:50:47;;;;;;;1.17;0.73;;;;;;;;;;4347997;33;20155;-86
2021/09/12 13:53:15;;;;;;;1.52;0.70;;;;;;;;;;4347863;33;20199;-85
2021/09/12 13:55:41;;;;;;;1.15;0.60;;;;;;;;;;4348182;33;20181;-85
2021/09/12 13:58:06;;;;;;;2.35;1.10;;;;;;;;;;4348073;33;20474;-84
2021/09/12 14:00:34;;;;;;;1.85;0.88;;;;;;;;;;4347060;33;20460;-85
2021/09/12 14:02:59;;;;;;;2.60;1.00;;;;;;;;;;4334154;33;20170;-85
2021/09/12 14:05:25;;;;;;;1.77;0.80;;;;;;;;;;4347052;33;20528;-84
2021/09/12 14:08:03;;;;;;;2.10;0.90;;;;;;;;;;4347258;33;20656;-84
2021/09/12 14:10:28;;;;;;;2.92;1.00;;;;;;;;;;4333877;33;20182;-85
2021/09/12 14:12:56;;;;;;;2.62;0.90;;;;;;;;;;4346108;33;20140;-84
2021/09/12 14:15:28;;;;;;;1.55;0.90;;;;;;;;;;4333086;33;20253;-84
2021/09/12 14:17:53;;;;;;;1.55;0.80;;;;;;;;;;4347395;33;20143;-85
2021/09/12 14:20:18;;;;;;;2.42;0.98;;;;;;;;;;4346632;33;20136;-84
2021/09/12 14:22:44;;;;;;;2.62;0.80;;;;;;;;;;4346642;33;20466;-83
2021/09/12 14:25:09;;;;;;;1.92;1.00;;;;;;;;;;4346422;33;20550;-83
2021/09/12 14:27:35;;;;;;;1.55;1.10;;;;;;;;;;4346170;33;20154;-83
2021/09/12 14:30:00;;;;;;;2.72;0.90;;;;;;;;;;4346374;33;20529;-85
2021/09/12 14:32:25;;;;;;;2.35;1.10;;;;;;;;;;4346529;33;20202;-85
2021/09/12 14:34:56;;;;;;;2.78;1.20;;;;;;;;;;4348170;33;20572;-84
2021/09/12 14:37:25;;;;;;;2.37;1.30;;;;;;;;;;4348329;33;20170;-85
2021/09/12 14:40:01;;;;;;;3.85;1.70;;;;;;;;;;4347990;33;20144;-85
2021/09/12 14:42:27;;;;;;;1.62;1.10;;;;;;;;;;4347549;33;20155;-84
2021/09/12 14:44:58;;;;;;;2.45;1.27;;;;;;;;;;4348149;33;20144;-84
2021/09/12 14:47:26;;;;;;;3.03;1.23;;;;;;;;;;4347104;33;20162;-85
2021/09/12 14:50:02;;;;;;;2.05;1.23;;;;;;;;;;4348785;33;20170;-83